Time;durP1;ratioP1;P1;durP2;ratioP2;P2;SDS_P1;SDS_P2;PMS_P1;PMS_P2;Temp;Humidity;BMP_temperature;BMP_pressure;BME280_temperature;BME280_humidity;BME280_pressure;Samples;Min_cycle;Max_cycle;Signal;HPM_P1;HPM_P2
2022/09/21 00:02:18;;;;;;;9.38;2.55;;;;;;;17.46;78.09;99741.06;10375617;28;20429;-68
2022/09/21 00:07:19;;;;;;;14.05;3.03;;;;;;;17.92;78.37;99809.44;10376752;28;20038;-68
2022/09/21 00:12:21;;;;;;;9.02;4.50;;;;;;;17.55;79.14;99764.69;10375917;28;20038;-68
2022/09/21 00:17:21;;;;;;;8.00;2.60;;;;;;;17.52;79.60;99734.78;10375021;28;20179;-68
2022/09/21 00:22:22;;;;;;;6.55;2.17;;;;;;;18.06;78.83;99793.97;10374775;28;20204;-67
2022/09/21 00:27:28;;;;;;;8.35;1.92;;;;;;;17.53;78.51;99701.53;10375122;28;20095;-67
2022/09/21 00:32:33;;;;;;;6.30;2.00;;;;;;;18.07;78.63;99780.31;10375079;28;20034;-68
2022/09/21 00:37:34;;;;;;;10.65;2.17;;;;;;;18.16;77.81;99776.22;10375250;28;20167;-68
2022/09/21 00:42:36;;;;;;;11.18;2.50;;;;;;;17.89;77.89;99708.66;10373468;28;20042;-68
2022/09/21 00:47:41;;;;;;;6.35;2.10;;;;;;;18.18;78.20;99732.97;10374415;28;20049;-69
2022/09/21 00:52:54;;;;;;;5.97;1.98;;;;;;;18.05;78.52;99707.13;10372903;28;20605;-68
2022/09/21 00:57:57;;;;;;;;;;;;;;;18.30;77.64;99735.66;10375014;28;20140;-68
2022/09/21 01:03:00;;;;;;;11.95;2.05;;;;;;;18.00;78.18;99862.88;10373597;28;20591;-69
2022/09/21 01:08:03;;;;;;;5.53;2.17;;;;;;;17.63;79.29;99903.22;10373303;28;20405;-71
2022/09/21 01:13:29;;;;;;;5.25;1.73;;;;;;;18.05;79.48;99965.16;10373454;28;20088;-69
2022/09/21 01:18:44;;;;;;;8.15;2.15;;;;;;;17.92;79.36;99960.78;10373777;28;20049;-69
2022/09/21 01:24:03;;;;;;;11.45;3.13;;;;;;;18.14;78.16;99954.91;10372941;28;20053;-69
2022/09/21 01:29:31;;;;;;;10.20;2.30;;;;;;;18.30;80.32;99950.78;10373012;28;20045;-69
2022/09/21 01:35:07;;;;;;;6.05;2.22;;;;;;;18.25;80.39;99905.75;10371697;28;20025;-69
2022/09/21 01:40:17;;;;;;;7.22;2.10;;;;;;;17.65;80.09;99792.84;10372045;28;20045;-69
2022/09/21 01:45:26;;;;;;;6.63;2.33;;;;;;;17.64;80.33;99773.25;10372486;28;20052;-69
2022/09/21 01:50:33;;;;;;;17.65;2.90;;;;;;;18.01;81.68;99816.16;10372043;28;20052;-69
2022/09/21 01:55:41;;;;;;;7.40;2.15;;;;;;;18.02;82.45;99831.22;10371112;28;20058;-70
2022/09/21 02:00:47;;;;;;;15.63;2.58;;;;;;;16.50;82.73;99636.16;10371606;28;20077;-69
2022/09/21 02:05:48;;;;;;;14.07;6.88;;;;;;;17.98;82.55;99890.00;10372162;28;20034;-68
2022/09/21 02:10:51;;;;;;;5.60;2.97;;;;;;;17.36;84.86;99824.84;10371908;28;20454;-69
2022/09/21 02:16:07;;;;;;;14.52;3.83;;;;;;;17.96;87.34;99904.72;10371842;28;20037;-69
2022/09/21 02:21:29;;;;;;;10.60;2.50;;;;;;;17.47;88.03;99797.25;10377484;28;20042;-69
2022/09/21 02:26:39;;;;;;;10.18;2.25;;;;;;;17.40;86.98;99780.38;10377998;28;20493;-69
2022/09/21 02:32:03;;;;;;;12.82;2.80;;;;;;;17.31;88.13;99798.66;10379059;28;20038;-70
2022/09/21 02:37:31;;;;;;;7.05;2.30;;;;;;;17.81;87.26;99856.75;10371785;28;20073;-69
2022/09/21 02:42:37;;;;;;;10.32;2.40;;;;;;;16.42;86.83;99637.28;10371700;28;20104;-69
2022/09/21 02:47:59;;;;;;;9.32;2.60;;;;;;;17.45;87.56;99798.50;10373311;28;20034;-70
2022/09/21 02:53:03;;;;;;;9.57;2.25;;;;;;;17.51;86.17;99864.75;10387316;28;20046;-69
2022/09/21 02:58:06;;;;;;;;;;;;;;;17.92;87.04;99933.91;10371273;28;20137;-69
2022/09/21 03:03:19;;;;;;;12.60;3.07;;;;;;;17.73;89.48;100002.91;10375807;28;20034;-69
2022/09/21 03:08:21;;;;;;;6.15;2.10;;;;;;;17.56;87.66;99972.31;10378404;28;20042;-70
2022/09/21 03:13:22;;;;;;;7.60;2.55;;;;;;;17.65;87.75;99991.63;10378569;28;20084;-69
2022/09/21 03:18:23;;;;;;;13.30;3.55;;;;;;;17.64;87.68;99988.13;10378390;28;20041;-69
2022/09/21 03:23:24;;;;;;;6.50;2.95;;;;;;;17.36;87.71;99942.16;10378398;28;20069;-69
2022/09/21 03:28:25;;;;;;;5.32;2.92;;;;;;;17.60;87.73;99992.31;10375618;28;20041;-69
2022/09/21 03:33:26;;;;;;;5.70;3.05;;;;;;;18.14;87.71;100049.81;10375200;28;20521;-71
2022/09/21 03:38:27;;;;;;;8.85;2.60;;;;;;;17.84;88.33;99973.69;10376996;28;20073;-70
2022/09/21 03:43:27;;;;;;;30.23;4.15;;;;;;;18.19;88.70;100004.28;10377014;28;20041;-70
2022/09/21 03:48:28;;;;;;;60.70;5.88;;;;;;;17.79;89.53;99905.31;10375093;28;20088;-70
2022/09/21 03:53:29;;;;;;;53.10;5.35;;;;;;;17.73;89.71;99870.44;10376539;28;20066;-70
2022/09/21 03:58:30;;;;;;;14.90;4.45;;;;;;;18.56;89.83;99971.91;10377805;28;20065;-69
2022/09/21 04:03:30;;;;;;;14.52;4.28;;;;;;;18.33;89.55;99918.03;10354348;28;20057;-70
2022/09/21 04:08:32;;;;;;;33.63;4.93;;;;;;;18.35;89.81;99897.13;10375567;28;20045;-71
2022/09/21 04:13:34;;;;;;;28.42;4.78;;;;;;;17.29;89.93;99720.25;10375502;28;20464;-70
2022/09/21 04:18:36;;;;;;;14.38;3.20;;;;;;;18.72;89.91;99946.22;10375260;28;20478;-69
2022/09/21 04:23:38;;;;;;;24.13;4.25;;;;;;;18.42;89.27;99897.84;10375245;28;20501;-69
2022/09/21 04:28:38;;;;;;;19.48;2.90;;;;;;;18.17;88.44;99836.19;10376009;28;20046;-70
2022/09/21 04:33:40;;;;;;;17.38;3.08;;;;;;;18.93;87.56;99951.09;10374190;28;20485;-70
2022/09/21 04:38:41;;;;;;;10.02;3.53;;;;;;;19.18;87.19;99947.34;10373459;28;20436;-71
2022/09/21 04:43:46;;;;;;;27.50;5.03;;;;;;;18.88;87.45;99869.41;10373796;28;20049;-69
2022/09/21 04:48:48;;;;;;;15.60;3.97;;;;;;;19.33;86.74;99918.06;10372171;28;20044;-70
2022/09/21 04:53:50;;;;;;;14.20;3.28;;;;;;;19.27;86.10;99885.88;10374765;28;20390;-70
2022/09/21 04:58:50;;;;;;;11.05;3.17;;;;;;;19.05;85.71;99899.94;10387482;28;20425;-69
2022/09/21 05:03:51;;;;;;;9.63;3.00;;;;;;;19.39;85.08;99919.00;10373958;28;20045;-69
2022/09/21 05:14:11;;;;;;;7.05;2.58;;;;;;;20.94;81.24;100014.28;10373035;28;20100;-69
2022/09/21 05:19:12;;;;;;;9.90;2.20;;;;;;;21.30;79.64;100027.53;10373432;28;20046;-69
2022/09/21 05:24:13;;;;;;;5.32;2.38;;;;;;;21.23;79.32;100000.69;10389000;28;20532;-69
2022/09/21 05:29:14;;;;;;;5.93;2.50;;;;;;;21.54;77.60;100039.00;10373569;28;20041;-70
2022/09/21 05:34:35;;;;;;;6.07;2.25;;;;;;;22.00;74.54;100053.19;10373759;28;20038;-70
2022/09/21 05:39:36;;;;;;;7.78;3.25;;;;;;;22.19;73.22;100019.38;10372708;28;20057;-70
2022/09/21 05:44:38;;;;;;;7.55;2.60;;;;;;;22.30;72.11;99967.00;10387817;28;20037;-70
2022/09/21 05:50:04;;;;;;;10.85;2.80;;;;;;;22.95;68.81;99988.78;10371822;28;20046;-71
2022/09/21 05:55:14;;;;;;;7.97;2.13;;;;;;;23.49;68.85;100048.25;10372210;28;20030;-70
2022/09/21 06:00:18;;;;;;;10.32;2.63;;;;;;;23.44;66.12;99999.41;10372262;28;20050;-70
2022/09/21 06:05:20;;;;;;;7.55;2.00;;;;;;;23.72;65.66;100022.66;10371123;28;20049;-69
2022/09/21 06:10:23;;;;;;;4.90;2.28;;;;;;;23.92;64.19;99984.78;10370871;28;20490;-69
2022/09/21 06:15:23;;;;;;;5.27;1.73;;;;;;;23.30;63.65;99906.09;10372444;28;20470;-70
2022/09/21 06:20:24;;;;;;;7.10;2.25;;;;;;;24.11;63.42;100028.56;10372357;28;20065;-69
2022/09/21 06:25:25;;;;;;;7.30;1.90;;;;;;;23.92;62.86;99973.13;10371587;28;20034;-69
2022/09/21 06:30:26;;;;;;;5.70;2.00;;;;;;;24.30;62.18;100026.19;10371585;28;20493;-70
2022/09/21 06:35:28;;;;;;;5.05;2.38;;;;;;;24.39;61.12;100002.03;10387272;28;20091;-70
2022/09/21 06:40:30;;;;;;;13.23;1.90;;;;;;;24.63;60.21;99999.69;10372176;28;20077;-69
2022/09/21 06:45:31;;;;;;;3.03;1.63;;;;;;;24.53;58.97;99921.72;10370825;28;20042;-69
2022/09/21 06:50:32;;;;;;;6.85;2.00;;;;;;;24.45;57.69;99900.53;10370846;28;20289;-72
2022/09/21 06:55:33;;;;;;;4.75;1.80;;;;;;;24.13;57.60;99852.69;10369625;28;20144;-70
2022/09/21 07:00:34;;;;;;;4.70;2.13;;;;;;;24.56;56.98;99904.91;10369625;28;20140;-68
2022/09/21 07:05:35;;;;;;;5.75;1.88;;;;;;;25.02;56.71;99988.28;10373392;28;20132;-70
2022/09/21 07:10:35;;;;;;;9.65;2.10;;;;;;;25.13;56.23;99976.38;10377537;28;20065;-69
2022/09/21 07:15:38;;;;;;;9.20;2.45;;;;;;;25.49;55.82;100015.19;10392832;28;20114;-73
2022/09/21 07:20:41;;;;;;;7.60;3.58;;;;;;;25.29;54.80;99955.41;10378299;28;20046;-69
2022/09/21 07:25:44;;;;;;;14.52;2.20;;;;;;;25.72;54.70;99985.72;10378238;28;20038;-68
2022/09/21 07:30:44;;;;;;;10.20;1.80;;;;;;;25.15;53.97;99867.34;10378214;28;20049;-70
2022/09/21 07:35:57;;;;;;;11.50;1.92;;;;;;;25.09;52.28;99803.19;10376161;28;20371;-69
2022/09/21 07:41:01;;;;;;;3.50;1.67;;;;;;;26.09;52.14;99938.28;10377960;28;20029;-69
2022/09/21 07:46:02;;;;;;;7.65;2.00;;;;;;;25.54;52.51;99855.78;10376507;28;20632;-70
2022/09/21 07:51:05;;;;;;;4.85;1.80;;;;;;;26.03;52.23;99899.38;10377072;28;20140;-69
2022/09/21 07:56:16;;;;;;;10.88;2.05;;;;;;;26.91;51.40;100003.13;10376125;28;20061;-69
2022/09/21 08:01:17;;;;;;;10.00;1.90;;;;;;;25.96;50.53;99815.31;10376270;28;20046;-69
2022/09/21 08:06:19;;;;;;;7.55;1.98;;;;;;;26.74;49.47;99895.31;10376703;28;20044;-72
2022/09/21 08:11:21;;;;;;;5.60;1.75;;;;;;;26.15;47.59;99795.59;10375561;28;20052;-71
2022/09/21 08:16:22;;;;;;;6.63;1.90;;;;;;;27.19;47.59;99933.38;10375167;28;20042;-70
2022/09/21 08:21:23;;;;;;;6.63;1.58;;;;;;;26.35;47.05;99781.78;10375731;28;20425;-69
2022/09/21 08:26:23;;;;;;;33.15;3.53;;;;;;;27.72;47.26;99977.78;10390112;28;20049;-70
2022/09/21 08:31:25;;;;;;;9.50;1.98;;;;;;;27.81;46.38;99961.63;10375066;28;20553;-71
2022/09/21 08:36:26;;;;;;;28.88;2.38;;;;;;;27.41;45.52;99845.59;10375184;28;20140;-69
2022/09/21 08:41:32;;;;;;;10.18;1.92;;;;;;;28.14;43.52;99934.44;10374040;28;20136;-69
2022/09/21 08:46:35;;;;;;;5.43;1.80;;;;;;;28.12;43.99;99887.47;10374478;28;20469;-69
2022/09/21 08:51:40;;;;;;;;;;;;;;;28.87;43.92;99927.59;10389574;28;20041;-69
2022/09/21 08:56:41;;;;;;;4.90;2.00;;;;;;;28.10;43.79;99855.03;10374601;28;19928;-69
2022/09/21 09:02:32;;;;;;;6.00;1.63;;;;;;;28.80;42.49;99916.22;10373820;28;20130;-69
2022/09/21 09:08:05;;;;;;;7.95;1.98;;;;;;;28.88;41.52;99883.53;10349111;28;20046;-70
2022/09/21 09:13:34;;;;;;;4.53;1.52;;;;;;;28.20;41.46;99780.31;10368009;28;20054;-69
2022/09/21 09:18:51;;;;;;;8.07;1.85;;;;;;;28.80;40.97;99858.81;10373277;28;20069;-70
2022/09/21 09:24:11;;;;;;;5.57;1.70;;;;;;;28.63;39.75;99832.88;10388718;28;20038;-70
2022/09/21 09:29:27;;;;;;;4.05;1.50;;;;;;;29.21;39.08;99891.69;10371985;28;20516;-71
2022/09/21 09:34:39;;;;;;;8.43;1.88;;;;;;;28.52;38.58;99787.72;10387731;28;20100;-71
2022/09/21 09:39:41;;;;;;;29.07;2.80;;;;;;;28.96;39.95;99808.22;10372473;28;20505;-71
2022/09/21 09:44:42;;;;;;;7.55;1.63;;;;;;;29.25;39.96;99887.25;10387790;28;20042;-70
2022/09/21 09:49:52;;;;;;;6.65;1.73;;;;;;;28.85;39.63;99809.50;10372408;28;20410;-70
2022/09/21 09:54:53;;;;;;;7.45;1.90;;;;;;;28.28;39.51;99768.72;10372215;28;20034;-70
2022/09/21 09:59:58;;;;;;;11.98;2.22;;;;;;;27.83;39.56;99753.91;10372880;28;20061;-71
2022/09/21 10:05:04;;;;;;;3.90;1.60;;;;;;;27.72;40.07;99747.75;10371571;28;20568;-71
2022/09/21 10:10:30;;;;;;;4.65;1.60;;;;;;;28.17;38.83;99699.00;10372526;28;20045;-70
2022/09/21 10:15:31;;;;;;;6.97;1.42;;;;;;;28.79;38.80;99747.84;10387788;28;20046;-69
2022/09/21 10:20:32;;;;;;;3.70;1.80;;;;;;;28.89;38.72;99745.72;10370412;28;20132;-70
2022/09/21 10:25:34;;;;;;;4.65;1.50;;;;;;;29.32;38.92;99766.47;10371249;28;20136;-71
2022/09/21 10:30:40;;;;;;;5.70;1.52;;;;;;;28.86;37.69;99658.03;10371632;28;20037;-70
2022/09/21 10:35:51;;;;;;;7.32;2.00;;;;;;;29.77;37.26;99789.28;10371531;28;20045;-70
2022/09/21 10:40:53;;;;;;;5.15;1.70;;;;;;;28.95;37.83;99724.53;10375607;28;20405;-71
2022/09/21 10:45:57;;;;;;;14.20;2.08;;;;;;;28.77;38.24;99700.88;10394407;28;20046;-70
2022/09/21 10:50:57;;;;;;;20.48;2.60;;;;;;;29.00;38.94;99721.72;10379678;28;20493;-70
2022/09/21 10:56:03;;;;;;;3.88;1.75;;;;;;;29.30;37.25;99727.66;10393600;28;20100;-70
2022/09/21 11:01:19;;;;;;;14.55;2.05;;;;;;;28.73;37.41;99620.63;10378835;28;20046;-70
2022/09/21 11:06:34;;;;;;;8.73;2.08;;;;;;;29.33;37.92;99729.78;10378781;28;20398;-70
2022/09/21 11:12:23;;;;;;;6.68;1.75;;;;;;;29.64;37.19;99784.66;10377930;28;20046;-70
2022/09/21 11:18:03;;;;;;;8.27;2.60;;;;;;;29.38;38.76;99780.84;10372112;28;20490;-71
2022/09/21 11:23:17;;;;;;;10.10;2.50;;;;;;;29.21;39.03;99795.16;10366568;28;20055;-70
2022/09/21 11:28:27;;;;;;;30.52;3.00;;;;;;;27.91;40.03;99587.53;10377297;28;20042;-71
2022/09/21 11:33:55;;;;;;;9.88;1.80;;;;;;;28.11;39.14;99642.84;10376271;28;20044;-70
2022/09/21 11:39:24;;;;;;;8.65;2.22;;;;;;;29.18;39.43;99779.38;10376565;28;20046;-71
2022/09/21 11:44:49;;;;;;;9.55;2.10;;;;;;;29.14;39.38;99781.91;10377615;28;20044;-71
2022/09/21 11:50:16;;;;;;;9.25;1.98;;;;;;;29.26;39.04;99773.19;10375838;28;20045;-71
2022/09/21 11:55:32;;;;;;;8.85;2.03;;;;;;;29.57;38.23;99790.53;10377094;28;20518;-69
2022/09/21 12:00:50;;;;;;;11.48;2.20;;;;;;;28.96;37.43;99709.78;10377018;28;20050;-71
2022/09/21 12:06:16;;;;;;;16.48;2.20;;;;;;;28.55;37.71;99693.41;10377165;28;20050;-71
2022/09/21 12:11:36;;;;;;;7.07;1.92;;;;;;;28.12;37.69;99664.41;10376118;28;20041;-70
2022/09/21 12:17:03;;;;;;;8.43;1.92;;;;;;;28.93;38.67;99814.28;10375152;28;20042;-71
2022/09/21 12:22:18;;;;;;;5.50;2.08;;;;;;;28.23;38.92;99725.09;10375560;28;20048;-70
2022/09/21 12:27:49;;;;;;;8.20;1.80;;;;;;;28.84;39.47;99827.03;10376027;28;20386;-70
2022/09/21 12:33:03;;;;;;;12.35;2.20;;;;;;;28.19;40.13;99738.53;10373860;28;20057;-70
2022/09/21 12:38:15;;;;;;;16.52;2.92;;;;;;;28.40;41.13;99787.34;10375174;28;20104;-71
2022/09/21 12:43:38;;;;;;;;;;;;;;;28.82;40.54;99840.19;10390577;28;20124;-69
2022/09/21 12:48:39;;;;;;;;;;;;;;;28.68;40.52;99846.44;10375477;28;19927;-70
2022/09/21 12:53:45;;;;;;;15.48;5.85;;;;;;;27.30;40.98;99692.19;10372576;28;20420;-70
2022/09/21 12:59:00;;;;;;;12.57;4.70;;;;;;;28.14;41.18;99868.88;10374354;28;20061;-71
2022/09/21 13:04:12;;;;;;;15.15;2.60;;;;;;;28.14;41.88;99866.97;10372636;28;20046;-71
2022/09/21 13:09:16;;;;;;;31.25;3.97;;;;;;;27.81;42.54;99816.16;10373531;28;20065;-70
2022/09/21 13:14:17;;;;;;;20.23;3.47;;;;;;;28.03;42.55;99867.41;10374247;28;20046;-70
2022/09/21 13:19:22;;;;;;;13.88;2.78;;;;;;;27.63;42.74;99856.75;10373259;28;20041;-70
2022/09/21 13:24:29;;;;;;;8.52;2.63;;;;;;;27.83;43.04;99912.22;10373245;28;20034;-70
2022/09/21 13:29:33;;;;;;;4.18;2.05;;;;;;;27.55;43.34;99906.50;10370523;28;20042;-70
2022/09/21 13:34:36;;;;;;;8.65;2.70;;;;;;;27.50;43.75;99942.84;10362884;28;20073;-71
2022/09/21 13:40:04;;;;;;;13.30;2.80;;;;;;;27.41;44.77;99941.88;10368553;28;20140;-71
2022/09/21 13:45:12;;;;;;;9.30;2.65;;;;;;;27.23;45.51;99931.69;10383771;28;20461;-70
2022/09/21 13:50:27;;;;;;;14.23;2.90;;;;;;;27.07;45.79;99922.81;10371144;28;20046;-71
2022/09/21 13:55:40;;;;;;;30.85;4.47;;;;;;;27.01;46.13;99907.63;10369762;28;20049;-72
2022/09/21 14:01:06;;;;;;;14.35;3.47;;;;;;;26.97;46.24;99892.94;10370861;28;20037;-72
2022/09/21 14:06:09;;;;;;;130.80;10.25;;;;;;;26.78;46.82;99866.41;10331206;28;20049;-70
2022/09/21 14:11:20;;;;;;;25.17;4.78;;;;;;;26.25;48.54;99835.53;10340132;28;20042;-68
2022/09/21 14:16:33;;;;;;;14.15;4.28;;;;;;;25.76;50.07;99793.66;10376471;28;20129;-70
2022/09/21 14:21:33;;;;;;;15.20;4.38;;;;;;;25.05;50.60;99718.72;10374097;28;20056;-71
2022/09/21 14:26:40;;;;;;;20.33;4.68;;;;;;;24.69;52.25;99683.53;10373575;28;20037;-69
2022/09/21 14:31:41;;;;;;;21.33;5.35;;;;;;;24.57;52.35;99711.00;10388554;28;20033;-70
2022/09/21 14:36:48;;;;;;;25.33;4.57;;;;;;;24.28;54.15;99735.19;10373115;28;20084;-71
2022/09/21 14:41:54;;;;;;;20.17;4.65;;;;;;;23.68;54.78;99696.91;10373771;28;20042;-70
2022/09/21 14:47:24;;;;;;;14.60;4.70;;;;;;;23.81;55.38;99736.31;10373577;28;20073;-72
2022/09/21 14:53:04;;;;;;;29.85;4.72;;;;;;;23.85;55.96;99785.41;10372228;28;20080;-69
2022/09/21 14:58:45;;;;;;;12.10;4.18;;;;;;;23.73;55.51;99801.91;10375095;28;20073;-69
2022/09/21 15:04:15;;;;;;;17.55;4.18;;;;;;;23.61;55.90;99828.44;10377765;28;20076;-70
2022/09/21 15:15:25;;;;;;;15.13;5.38;;;;;;;23.07;55.91;99777.28;10372572;28;20041;-70
2022/09/21 15:20:29;;;;;;;16.30;6.20;;;;;;;22.81;56.29;99744.63;10355026;28;20049;-69
2022/09/21 15:25:32;;;;;;;12.80;5.60;;;;;;;23.15;56.40;99811.97;10372119;28;20041;-68
2022/09/21 15:30:44;;;;;;;16.65;6.13;;;;;;;22.99;56.89;99798.38;10377165;28;20449;-67
2022/09/21 15:35:46;;;;;;;11.55;6.07;;;;;;;23.10;56.66;99831.75;10377548;28;20525;-69
2022/09/21 15:40:46;;;;;;;11.60;5.38;;;;;;;22.92;56.82;99824.03;10377295;28;20116;-67
2022/09/21 15:45:50;;;;;;;11.73;5.75;;;;;;;22.87;57.14;99819.41;10377311;28;20132;-68
2022/09/21 15:50:56;;;;;;;;;;;;;;;22.89;56.21;99817.25;10386151;28;20048;-69
2022/09/21 15:56:01;;;;;;;10.45;6.03;;;;;;;22.64;57.09;99826.00;10370010;28;19931;-70
2022/09/21 16:01:11;;;;;;;16.98;4.93;;;;;;;22.56;57.91;99840.03;10370513;28;20034;-69
2022/09/21 16:06:21;;;;;;;11.63;4.93;;;;;;;22.46;58.42;99829.13;10357635;28;20107;-69
2022/09/21 16:11:28;;;;;;;10.27;4.38;;;;;;;22.27;58.42;99816.00;10417235;28;20041;-69
2022/09/21 16:16:29;;;;;;;12.95;4.00;;;;;;;22.28;58.14;99836.56;10415711;28;20037;-67
2022/09/21 16:21:36;;;;;;;13.57;3.90;;;;;;;22.24;59.09;99851.69;10417025;28;20044;-66
2022/09/21 16:26:38;;;;;;;12.73;3.92;;;;;;;22.18;58.48;99839.19;10406903;28;20041;-66
2022/09/21 16:31:39;;;;;;;9.27;3.90;;;;;;;22.08;58.33;99829.06;10415931;28;20049;-67
2022/09/21 16:36:41;;;;;;;11.05;3.92;;;;;;;21.98;58.55;99833.53;10390259;28;20045;-67
2022/09/21 16:42:03;;;;;;;9.90;4.03;;;;;;;21.62;59.44;99804.25;10381435;28;20072;-67
2022/09/21 16:47:12;;;;;;;12.40;3.80;;;;;;;22.04;58.92;99890.13;10415558;28;20046;-66
2022/09/21 16:52:15;;;;;;;5.25;3.65;;;;;;;21.99;58.54;99900.09;10398186;28;20034;-68
2022/09/21 16:57:17;;;;;;;7.47;4.07;;;;;;;21.95;58.41;99924.13;10395040;28;20061;-66
2022/09/21 17:02:18;;;;;;;11.98;4.07;;;;;;;21.89;58.34;99955.69;10410244;28;20053;-65
2022/09/21 17:07:19;;;;;;;11.98;4.40;;;;;;;21.27;58.18;99872.19;10404991;28;20068;-66
2022/09/21 17:12:21;;;;;;;7.97;3.97;;;;;;;21.22;58.42;99868.59;10401568;28;20433;-67
2022/09/21 17:17:24;;;;;;;7.28;3.70;;;;;;;21.49;58.77;99952.47;10407358;28;20104;-67
2022/09/21 17:22:25;;;;;;;9.13;3.40;;;;;;;21.66;59.22;99969.47;10408878;28;20041;-65
2022/09/21 17:27:27;;;;;;;11.23;3.50;;;;;;;21.42;59.16;99937.25;10406306;28;20276;-66
2022/09/21 17:32:28;;;;;;;6.60;3.17;;;;;;;21.58;59.25;99940.16;10399005;28;20050;-66
2022/09/21 17:37:32;;;;;;;7.45;3.53;;;;;;;21.51;58.75;99917.88;10408504;28;20041;-67
2022/09/21 17:42:37;;;;;;;;;;;;;;;21.57;57.77;99889.88;10387407;28;20042;-66
2022/09/21 17:47:38;;;;;;;8.10;2.78;;;;;;;21.25;58.06;99857.28;10368409;28;19921;-68
2022/09/21 17:58:35;;;;;;;7.30;3.28;;;;;;;21.15;58.10;99823.69;10377761;28;20061;-67
2022/09/21 18:03:40;;;;;;;14.05;4.90;;;;;;;21.07;58.18;99799.78;10387869;28;20119;-68
2022/09/21 18:08:41;;;;;;;7.80;3.78;;;;;;;20.92;58.20;99813.91;10412859;28;20041;-68
2022/09/21 18:14:10;;;;;;;8.63;4.20;;;;;;;21.06;58.76;99875.66;10422180;28;20505;-66
2022/09/21 18:19:31;;;;;;;8.43;4.50;;;;;;;21.02;59.06;99858.31;10412238;28;20034;-67
2022/09/21 18:24:31;;;;;;;10.25;4.57;;;;;;;20.58;58.99;99777.22;10412594;28;20142;-67
2022/09/21 18:29:33;;;;;;;13.52;5.82;;;;;;;20.87;59.19;99830.03;10411997;28;20596;-67
2022/09/21 18:34:49;;;;;;;10.07;5.15;;;;;;;20.84;59.97;99810.81;10406492;28;20107;-66
2022/09/21 18:40:20;;;;;;;13.65;5.75;;;;;;;20.84;60.56;99824.31;10371760;28;20045;-66
2022/09/21 18:45:30;;;;;;;9.85;5.45;;;;;;;20.83;60.59;99869.41;10370472;28;20037;-68
2022/09/21 18:50:40;;;;;;;11.48;5.50;;;;;;;20.83;60.18;99877.50;10386221;28;20046;-66
2022/09/21 18:55:41;;;;;;;11.30;5.75;;;;;;;20.78;60.44;99853.09;10386577;28;20065;-66
2022/09/21 19:00:42;;;;;;;9.90;5.57;;;;;;;20.73;60.75;99836.84;10373927;28;20045;-67
2022/09/21 19:06:26;;;;;;;11.05;5.18;;;;;;;20.78;62.60;99836.09;10394112;28;20048;-69
2022/09/21 19:11:52;;;;;;;14.07;5.68;;;;;;;20.57;64.05;99825.00;10370489;28;20064;-67
2022/09/21 19:17:12;;;;;;;13.10;5.78;;;;;;;20.39;66.44;99838.69;10378217;28;20044;-67
2022/09/21 19:22:51;;;;;;;10.82;6.22;;;;;;;20.20;69.54;99830.03;10377709;28;20065;-67
2022/09/21 19:28:01;;;;;;;16.73;7.40;;;;;;;19.74;70.91;99807.63;10373538;28;20046;-66
2022/09/21 19:33:17;;;;;;;10.30;6.43;;;;;;;19.25;72.04;99739.88;10390727;28;20449;-67
2022/09/21 19:38:18;;;;;;;10.15;6.15;;;;;;;19.48;70.19;99769.44;10398102;28;20465;-67
2022/09/21 19:43:43;;;;;;;10.70;6.15;;;;;;;19.21;73.10;99753.00;10387154;28;20077;-67
2022/09/21 19:48:46;;;;;;;8.02;5.10;;;;;;;19.46;72.62;99836.19;10376479;28;20037;-67
2022/09/21 20:04:43;;;;;;;10.05;5.30;;;;;;;19.51;75.39;99862.41;10377046;28;20119;-67
2022/09/21 20:10:03;;;;;;;10.35;4.22;;;;;;;19.45;75.93;99866.88;10375821;28;20510;-67
2022/09/21 20:15:15;;;;;;;15.70;5.65;;;;;;;19.30;76.00;99880.84;10375082;28;20037;-68
2022/09/21 20:20:25;;;;;;;8.80;4.72;;;;;;;19.04;75.85;99868.69;10375874;28;20046;-67
2022/09/21 20:25:33;;;;;;;13.38;5.57;;;;;;;19.08;74.90;99904.84;10375724;28;20042;-69
2022/09/21 20:30:37;;;;;;;10.65;4.15;;;;;;;19.02;73.64;99913.84;10375657;28;20046;-68
2022/09/21 20:35:37;;;;;;;10.20;3.78;;;;;;;18.96;72.39;99877.09;10375209;28;20037;-68
2022/09/21 20:40:38;;;;;;;11.60;3.58;;;;;;;18.68;71.98;99840.94;10374441;28;20421;-70
2022/09/21 20:45:39;;;;;;;7.53;2.75;;;;;;;18.97;71.72;99889.53;10375151;28;20126;-70
2022/09/21 20:50:47;;;;;;;15.10;3.83;;;;;;;18.89;73.32;99903.34;10374306;28;20486;-68
2022/09/21 20:55:56;;;;;;;21.38;5.20;;;;;;;18.90;74.04;99919.22;10374412;28;20069;-68
2022/09/21 21:01:07;;;;;;;9.75;3.63;;;;;;;18.84;76.37;99916.66;10389729;28;20077;-70
2022/09/21 21:06:14;;;;;;;7.90;3.50;;;;;;;18.43;78.05;99896.81;10374216;28;20030;-67
2022/09/21 21:11:15;;;;;;;8.57;3.70;;;;;;;18.34;77.62;99931.28;10374074;28;20073;-71
2022/09/21 21:16:16;;;;;;;7.45;3.20;;;;;;;17.99;78.76;99928.44;10374227;28;20509;-70
2022/09/21 21:21:17;;;;;;;5.72;3.53;;;;;;;17.50;80.11;99852.34;10373740;28;20064;-69
2022/09/21 21:26:18;;;;;;;8.07;3.55;;;;;;;17.83;80.88;99924.50;10372129;28;20456;-71
2022/09/21 21:31:18;;;;;;;6.85;3.45;;;;;;;17.77;81.28;99947.72;10373311;28;20045;-69
2022/09/21 21:36:19;;;;;;;8.70;4.05;;;;;;;17.76;82.04;99946.03;10373954;28;20045;-69
2022/09/21 21:41:20;;;;;;;7.57;3.60;;;;;;;17.21;82.59;99878.09;10373608;28;20045;-69
2022/09/21 21:46:21;;;;;;;7.40;3.58;;;;;;;17.48;83.23;99938.50;10373326;28;20041;-70
2022/09/21 21:51:22;;;;;;;7.85;3.63;;;;;;;17.54;84.40;99932.25;10372724;28;20041;-69
2022/09/21 21:56:22;;;;;;;4.47;2.55;;;;;;;17.56;84.77;99930.16;10373693;28;20069;-67
2022/09/21 22:01:28;;;;;;;7.07;3.10;;;;;;;17.08;87.83;99857.56;10373066;28;20046;-68
2022/09/21 22:06:30;;;;;;;6.18;2.92;;;;;;;17.52;86.52;99906.66;10371781;28;20046;-68
2022/09/21 22:11:32;;;;;;;14.05;2.80;;;;;;;17.57;86.45;99920.25;10372095;28;20042;-68
2022/09/21 22:16:34;;;;;;;5.97;2.70;;;;;;;17.55;87.77;99925.81;10371700;28;20053;-68
2022/09/21 22:21:41;;;;;;;6.15;2.38;;;;;;;17.53;91.52;99913.69;10372433;28;20038;-68
2022/09/21 22:26:44;;;;;;;4.30;2.58;;;;;;;17.52;90.88;99909.34;10372105;28;20038;-67
2022/09/21 22:31:48;;;;;;;5.32;2.30;;;;;;;17.41;93.55;99899.34;10371776;28;20041;-68
2022/09/21 22:36:49;;;;;;;3.78;1.80;;;;;;;16.49;92.91;99775.81;10376405;28;20045;-67
2022/09/21 22:41:50;;;;;;;3.15;1.20;;;;;;;17.32;94.31;99874.69;10379294;28;20042;-67
2022/09/21 22:46:50;;;;;;;4.25;1.23;;;;;;;17.47;94.90;99887.69;10394333;28;20034;-67
2022/09/21 22:51:51;;;;;;;6.13;1.58;;;;;;;17.25;95.31;99849.75;10378631;28;20460;-67
2022/09/21 22:56:52;;;;;;;4.20;1.30;;;;;;;17.38;95.55;99881.00;10378928;28;20062;-67
2022/09/21 23:01:53;;;;;;;4.30;1.40;;;;;;;17.52;95.85;99918.22;10378293;28;20041;-67
2022/09/21 23:06:54;;;;;;;2.97;1.30;;;;;;;17.09;96.48;99851.97;10379132;28;20486;-67
2022/09/21 23:11:55;;;;;;;7.28;1.70;;;;;;;17.46;97.48;99929.84;10378490;28;20049;-68
2022/09/21 23:16:55;;;;;;;6.30;2.05;;;;;;;16.86;98.89;99866.03;10378527;28;20046;-67
2022/09/21 23:21:56;;;;;;;4.25;1.70;;;;;;;17.17;99.93;99939.47;10378137;28;20038;-68
2022/09/21 23:26:57;;;;;;;3.88;1.50;;;;;;;17.16;100.00;99961.94;10377180;28;20521;-71
2022/09/21 23:31:58;;;;;;;4.63;1.95;;;;;;;17.09;100.00;99940.53;10378080;28;20129;-67
2022/09/21 23:36:58;;;;;;;4.93;1.90;;;;;;;17.22;100.00;99925.34;10377566;28;20516;-68
2022/09/21 23:41:59;;;;;;;6.05;2.13;;;;;;;17.04;100.00;99899.31;10376958;28;20069;-68
2022/09/21 23:47:00;;;;;;;10.35;2.78;;;;;;;16.75;100.00;99821.16;10375966;28;20590;-68
2022/09/21 23:52:01;;;;;;;6.35;1.98;;;;;;;16.36;100.00;99734.69;10392677;28;20115;-68
2022/09/21 23:57:03;;;;;;;5.47;2.20;;;;;;;16.77;100.00;99829.81;10376220;28;20062;-68
